sensor_id;sensor_type;location;lat;lon;timestamp;P1;durP1;ratioP1;P2;durP2;ratioP2
72198;SDS011;60103;51.014;16.992;2022-10-30T00:01:13;28.90;;;13.90;;
72198;SDS011;60103;51.014;16.992;2022-10-30T00:03:41;24.10;;;11.30;;
72198;SDS011;60103;51.014;16.992;2022-10-30T00:06:09;25.10;;;12.50;;
72198;SDS011;60103;51.014;16.992;2022-10-30T00:08:36;24.90;;;12.20;;
72198;SDS011;60103;51.014;16.992;2022-10-30T00:11:05;25.40;;;13.20;;
72198;SDS011;60103;51.014;16.992;2022-10-30T00:13:33;28.00;;;14.30;;
72198;SDS011;60103;51.014;16.992;2022-10-30T00:16:02;25.10;;;12.80;;
72198;SDS011;60103;51.014;16.992;2022-10-30T00:18:33;27.20;;;13.30;;
72198;SDS011;60103;51.014;16.992;2022-10-30T00:21:19;28.00;;;12.30;;
72198;SDS011;60103;51.014;16.992;2022-10-30T00:23:47;27.60;;;12.70;;
72198;SDS011;60103;51.014;16.992;2022-10-30T00:26:16;27.50;;;13.00;;
72198;SDS011;60103;51.014;16.992;2022-10-30T00:28:52;27.70;;;13.30;;
72198;SDS011;60103;51.014;16.992;2022-10-30T00:31:21;24.00;;;13.00;;
72198;SDS011;60103;51.014;16.992;2022-10-30T00:33:51;28.00;;;13.10;;
72198;SDS011;60103;51.014;16.992;2022-10-30T00:36:19;26.80;;;13.00;;
72198;SDS011;60103;51.014;16.992;2022-10-30T00:38:49;27.20;;;13.00;;
72198;SDS011;60103;51.014;16.992;2022-10-30T00:41:19;27.20;;;12.00;;
72198;SDS011;60103;51.014;16.992;2022-10-30T00:43:48;25.50;;;11.80;;
72198;SDS011;60103;51.014;16.992;2022-10-30T00:46:23;25.90;;;13.60;;
72198;SDS011;60103;51.014;16.992;2022-10-30T00:48:58;23.90;;;11.70;;
72198;SDS011;60103;51.014;16.992;2022-10-30T00:51:28;28.70;;;11.60;;
72198;SDS011;60103;51.014;16.992;2022-10-30T00:53:57;25.70;;;11.50;;
72198;SDS011;60103;51.014;16.992;2022-10-30T00:56:25;20.40;;;10.30;;
72198;SDS011;60103;51.014;16.992;2022-10-30T00:58:56;21.80;;;10.50;;
72198;SDS011;60103;51.014;16.992;2022-10-30T01:01:26;21.70;;;9.80;;
72198;SDS011;60103;51.014;16.992;2022-10-30T01:03:55;22.10;;;9.20;;
72198;SDS011;60103;51.014;16.992;2022-10-30T01:06:24;20.80;;;9.60;;
72198;SDS011;60103;51.014;16.992;2022-10-30T01:08:52;22.10;;;9.60;;
72198;SDS011;60103;51.014;16.992;2022-10-30T01:11:25;23.30;;;10.30;;
72198;SDS011;60103;51.014;16.992;2022-10-30T01:13:53;19.70;;;9.40;;
72198;SDS011;60103;51.014;16.992;2022-10-30T01:16:29;20.70;;;10.30;;
72198;SDS011;60103;51.014;16.992;2022-10-30T01:22:02;19.90;;;9.90;;
72198;SDS011;60103;51.014;16.992;2022-10-30T01:29:54;22.80;;;10.60;;
72198;SDS011;60103;51.014;16.992;2022-10-30T01:32:37;22.60;;;11.00;;
72198;SDS011;60103;51.014;16.992;2022-10-30T01:35:32;20.50;;;10.00;;
72198;SDS011;60103;51.014;16.992;2022-10-30T01:38:06;23.00;;;9.70;;
72198;SDS011;60103;51.014;16.992;2022-10-30T01:40:38;20.70;;;9.70;;
72198;SDS011;60103;51.014;16.992;2022-10-30T01:43:07;19.90;;;9.40;;
72198;SDS011;60103;51.014;16.992;2022-10-30T01:49:06;23.20;;;10.60;;
72198;SDS011;60103;51.014;16.992;2022-10-30T01:59:52;21.20;;;9.50;;
72198;SDS011;60103;51.014;16.992;2022-10-30T02:02:24;19.70;;;9.10;;
72198;SDS011;60103;51.014;16.992;2022-10-30T02:04:52;24.40;;;9.50;;
72198;SDS011;60103;51.014;16.992;2022-10-30T02:07:19;20.10;;;9.60;;
72198;SDS011;60103;51.014;16.992;2022-10-30T02:09:49;22.50;;;10.00;;
72198;SDS011;60103;51.014;16.992;2022-10-30T02:12:18;20.80;;;9.60;;
72198;SDS011;60103;51.014;16.992;2022-10-30T02:14:47;21.30;;;10.90;;
72198;SDS011;60103;51.014;16.992;2022-10-30T02:17:17;21.60;;;10.80;;
72198;SDS011;60103;51.014;16.992;2022-10-30T02:19:48;26.30;;;11.40;;
72198;SDS011;60103;51.014;16.992;2022-10-30T02:22:15;30.70;;;12.20;;
72198;SDS011;60103;51.014;16.992;2022-10-30T02:24:44;25.10;;;10.70;;
72198;SDS011;60103;51.014;16.992;2022-10-30T02:27:11;24.90;;;11.90;;
72198;SDS011;60103;51.014;16.992;2022-10-30T02:29:39;22.90;;;10.90;;
72198;SDS011;60103;51.014;16.992;2022-10-30T02:32:06;19.90;;;9.50;;
72198;SDS011;60103;51.014;16.992;2022-10-30T02:34:34;20.20;;;8.90;;
72198;SDS011;60103;51.014;16.992;2022-10-30T02:37:02;19.40;;;9.00;;
72198;SDS011;60103;51.014;16.992;2022-10-30T02:39:29;16.80;;;8.50;;
72198;SDS011;60103;51.014;16.992;2022-10-30T02:41:57;17.40;;;8.60;;
72198;SDS011;60103;51.014;16.992;2022-10-30T02:44:28;19.60;;;9.50;;
72198;SDS011;60103;51.014;16.992;2022-10-30T02:46:55;19.70;;;8.80;;
72198;SDS011;60103;51.014;16.992;2022-10-30T02:49:22;16.30;;;7.80;;
72198;SDS011;60103;51.014;16.992;2022-10-30T02:51:50;16.60;;;7.50;;
72198;SDS011;60103;51.014;16.992;2022-10-30T02:54:17;20.40;;;7.50;;
72198;SDS011;60103;51.014;16.992;2022-10-30T02:56:44;18.20;;;7.60;;
72198;SDS011;60103;51.014;16.992;2022-10-30T02:59:13;17.70;;;7.80;;
72198;SDS011;60103;51.014;16.992;2022-10-30T03:01:40;21.00;;;8.20;;
72198;SDS011;60103;51.014;16.992;2022-10-30T03:04:08;18.70;;;8.70;;
72198;SDS011;60103;51.014;16.992;2022-10-30T03:06:36;19.70;;;9.30;;
72198;SDS011;60103;51.014;16.992;2022-10-30T03:09:03;17.50;;;8.20;;
72198;SDS011;60103;51.014;16.992;2022-10-30T03:11:32;19.00;;;8.70;;
72198;SDS011;60103;51.014;16.992;2022-10-30T03:14:00;18.90;;;8.50;;
72198;SDS011;60103;51.014;16.992;2022-10-30T03:16:27;17.80;;;9.20;;
72198;SDS011;60103;51.014;16.992;2022-10-30T03:18:59;20.40;;;9.00;;
72198;SDS011;60103;51.014;16.992;2022-10-30T03:21:27;17.30;;;8.20;;
72198;SDS011;60103;51.014;16.992;2022-10-30T03:23:54;16.80;;;7.20;;
72198;SDS011;60103;51.014;16.992;2022-10-30T03:26:22;20.20;;;9.30;;
72198;SDS011;60103;51.014;16.992;2022-10-30T03:28:52;16.30;;;8.10;;
72198;SDS011;60103;51.014;16.992;2022-10-30T03:31:21;21.00;;;8.70;;
72198;SDS011;60103;51.014;16.992;2022-10-30T03:34:06;16.40;;;7.90;;
72198;SDS011;60103;51.014;16.992;2022-10-30T03:36:33;19.90;;;8.30;;
72198;SDS011;60103;51.014;16.992;2022-10-30T03:39:00;17.40;;;7.80;;
72198;SDS011;60103;51.014;16.992;2022-10-30T03:41:29;15.00;;;7.30;;
72198;SDS011;60103;51.014;16.992;2022-10-30T03:43:56;19.90;;;8.30;;
72198;SDS011;60103;51.014;16.992;2022-10-30T03:46:24;20.90;;;8.10;;
72198;SDS011;60103;51.014;16.992;2022-10-30T03:48:52;20.00;;;8.30;;
72198;SDS011;60103;51.014;16.992;2022-10-30T03:51:20;17.60;;;7.30;;
72198;SDS011;60103;51.014;16.992;2022-10-30T03:53:48;16.90;;;7.60;;
72198;SDS011;60103;51.014;16.992;2022-10-30T03:56:15;17.00;;;7.80;;
72198;SDS011;60103;51.014;16.992;2022-10-30T03:58:46;16.70;;;8.10;;
72198;SDS011;60103;51.014;16.992;2022-10-30T04:01:17;17.20;;;7.10;;
72198;SDS011;60103;51.014;16.992;2022-10-30T04:03:47;17.90;;;8.10;;
72198;SDS011;60103;51.014;16.992;2022-10-30T04:06:15;18.40;;;7.70;;
72198;SDS011;60103;51.014;16.992;2022-10-30T04:08:42;18.60;;;8.00;;
72198;SDS011;60103;51.014;16.992;2022-10-30T04:11:09;16.60;;;8.10;;
72198;SDS011;60103;51.014;16.992;2022-10-30T04:13:38;16.50;;;7.80;;
72198;SDS011;60103;51.014;16.992;2022-10-30T04:16:05;15.60;;;7.70;;
72198;SDS011;60103;51.014;16.992;2022-10-30T04:18:33;15.90;;;8.20;;
72198;SDS011;60103;51.014;16.992;2022-10-30T04:21:00;19.80;;;8.30;;
72198;SDS011;60103;51.014;16.992;2022-10-30T04:23:28;17.80;;;8.50;;
72198;SDS011;60103;51.014;16.992;2022-10-30T04:25:55;20.10;;;10.40;;
72198;SDS011;60103;51.014;16.992;2022-10-30T04:28:22;21.30;;;9.50;;
72198;SDS011;60103;51.014;16.992;2022-10-30T04:30:50;19.80;;;8.90;;
72198;SDS011;60103;51.014;16.992;2022-10-30T04:33:17;19.10;;;9.20;;
72198;SDS011;60103;51.014;16.992;2022-10-30T04:35:47;18.40;;;8.40;;
72198;SDS011;60103;51.014;16.992;2022-10-30T04:38:15;22.20;;;8.10;;
72198;SDS011;60103;51.014;16.992;2022-10-30T04:40:45;20.20;;;8.10;;
72198;SDS011;60103;51.014;16.992;2022-10-30T04:43:13;17.20;;;8.00;;
72198;SDS011;60103;51.014;16.992;2022-10-30T04:45:45;15.50;;;7.50;;
72198;SDS011;60103;51.014;16.992;2022-10-30T04:48:13;15.30;;;7.90;;
72198;SDS011;60103;51.014;16.992;2022-10-30T04:50:42;20.50;;;9.40;;
72198;SDS011;60103;51.014;16.992;2022-10-30T04:53:13;24.30;;;9.70;;
72198;SDS011;60103;51.014;16.992;2022-10-30T04:55:42;18.40;;;8.60;;
72198;SDS011;60103;51.014;16.992;2022-10-30T04:58:11;22.20;;;9.10;;
72198;SDS011;60103;51.014;16.992;2022-10-30T05:00:40;18.90;;;9.00;;
72198;SDS011;60103;51.014;16.992;2022-10-30T05:03:22;18.80;;;8.80;;
72198;SDS011;60103;51.014;16.992;2022-10-30T05:05:58;19.70;;;9.20;;
72198;SDS011;60103;51.014;16.992;2022-10-30T05:08:28;16.40;;;9.20;;
72198;SDS011;60103;51.014;16.992;2022-10-30T05:10:57;21.00;;;10.40;;
72198;SDS011;60103;51.014;16.992;2022-10-30T05:13:27;21.30;;;10.80;;
72198;SDS011;60103;51.014;16.992;2022-10-30T05:15:54;20.30;;;10.40;;
72198;SDS011;60103;51.014;16.992;2022-10-30T05:18:22;20.90;;;10.00;;
72198;SDS011;60103;51.014;16.992;2022-10-30T05:20:50;18.60;;;9.70;;
72198;SDS011;60103;51.014;16.992;2022-10-30T05:23:17;19.30;;;8.90;;
72198;SDS011;60103;51.014;16.992;2022-10-30T05:25:45;18.50;;;8.80;;
72198;SDS011;60103;51.014;16.992;2022-10-30T05:28:13;21.70;;;9.20;;
72198;SDS011;60103;51.014;16.992;2022-10-30T05:30:44;18.90;;;8.50;;
72198;SDS011;60103;51.014;16.992;2022-10-30T05:33:30;17.40;;;9.00;;
72198;SDS011;60103;51.014;16.992;2022-10-30T05:35:57;17.10;;;8.20;;
72198;SDS011;60103;51.014;16.992;2022-10-30T05:38:26;15.80;;;7.70;;
72198;SDS011;60103;51.014;16.992;2022-10-30T05:40:53;17.70;;;7.80;;
72198;SDS011;60103;51.014;16.992;2022-10-30T05:43:21;16.10;;;7.60;;
72198;SDS011;60103;51.014;16.992;2022-10-30T05:45:48;15.30;;;7.30;;
72198;SDS011;60103;51.014;16.992;2022-10-30T05:48:16;18.50;;;8.10;;
72198;SDS011;60103;51.014;16.992;2022-10-30T05:50:44;20.20;;;8.20;;
72198;SDS011;60103;51.014;16.992;2022-10-30T05:53:19;21.00;;;7.80;;
72198;SDS011;60103;51.014;16.992;2022-10-30T05:55:46;19.70;;;8.30;;
72198;SDS011;60103;51.014;16.992;2022-10-30T05:58:19;21.40;;;8.30;;
72198;SDS011;60103;51.014;16.992;2022-10-30T06:00:47;16.50;;;8.10;;
72198;SDS011;60103;51.014;16.992;2022-10-30T06:03:16;16.80;;;8.50;;
72198;SDS011;60103;51.014;16.992;2022-10-30T06:05:44;19.40;;;9.20;;
72198;SDS011;60103;51.014;16.992;2022-10-30T06:08:13;18.10;;;8.30;;
72198;SDS011;60103;51.014;16.992;2022-10-30T06:10:45;18.30;;;8.30;;
72198;SDS011;60103;51.014;16.992;2022-10-30T06:13:19;17.40;;;7.60;;
72198;SDS011;60103;51.014;16.992;2022-10-30T06:16:08;20.00;;;8.10;;
72198;SDS011;60103;51.014;16.992;2022-10-30T06:19:04;18.30;;;7.90;;
72198;SDS011;60103;51.014;16.992;2022-10-30T06:21:32;21.50;;;10.30;;
72198;SDS011;60103;51.014;16.992;2022-10-30T06:24:10;17.90;;;9.10;;
72198;SDS011;60103;51.014;16.992;2022-10-30T06:26:47;22.30;;;8.90;;
72198;SDS011;60103;51.014;16.992;2022-10-30T06:29:16;19.60;;;8.90;;
72198;SDS011;60103;51.014;16.992;2022-10-30T06:31:44;22.50;;;9.70;;
72198;SDS011;60103;51.014;16.992;2022-10-30T06:34:11;18.50;;;9.10;;
72198;SDS011;60103;51.014;16.992;2022-10-30T06:36:40;13.80;;;7.20;;
72198;SDS011;60103;51.014;16.992;2022-10-30T06:39:07;18.30;;;8.50;;
72198;SDS011;60103;51.014;16.992;2022-10-30T06:41:42;17.60;;;8.40;;
72198;SDS011;60103;51.014;16.992;2022-10-30T06:44:30;16.30;;;8.50;;
72198;SDS011;60103;51.014;16.992;2022-10-30T06:46:58;18.20;;;8.60;;
72198;SDS011;60103;51.014;16.992;2022-10-30T06:49:25;16.70;;;7.10;;
72198;SDS011;60103;51.014;16.992;2022-10-30T06:51:53;21.30;;;8.40;;
72198;SDS011;60103;51.014;16.992;2022-10-30T06:54:20;17.80;;;8.70;;
72198;SDS011;60103;51.014;16.992;2022-10-30T06:57:00;20.10;;;8.30;;
72198;SDS011;60103;51.014;16.992;2022-10-30T07:00:04;18.50;;;8.30;;
72198;SDS011;60103;51.014;16.992;2022-10-30T07:02:59;18.30;;;9.10;;
72198;SDS011;60103;51.014;16.992;2022-10-30T07:05:28;18.60;;;8.80;;
72198;SDS011;60103;51.014;16.992;2022-10-30T07:07:56;15.10;;;7.60;;
72198;SDS011;60103;51.014;16.992;2022-10-30T07:10:23;16.80;;;7.90;;
72198;SDS011;60103;51.014;16.992;2022-10-30T07:13:26;16.70;;;8.10;;
72198;SDS011;60103;51.014;16.992;2022-10-30T07:16:04;15.20;;;7.90;;
72198;SDS011;60103;51.014;16.992;2022-10-30T07:18:36;16.70;;;8.00;;
72198;SDS011;60103;51.014;16.992;2022-10-30T07:21:04;17.30;;;7.40;;
72198;SDS011;60103;51.014;16.992;2022-10-30T07:23:31;19.30;;;8.80;;
72198;SDS011;60103;51.014;16.992;2022-10-30T07:26:16;17.80;;;8.70;;
72198;SDS011;60103;51.014;16.992;2022-10-30T07:28:46;20.70;;;8.70;;
72198;SDS011;60103;51.014;16.992;2022-10-30T07:31:37;18.00;;;8.60;;
72198;SDS011;60103;51.014;16.992;2022-10-30T07:34:33;20.30;;;9.50;;
72198;SDS011;60103;51.014;16.992;2022-10-30T07:37:28;18.50;;;8.50;;
72198;SDS011;60103;51.014;16.992;2022-10-30T07:40:04;16.10;;;7.90;;
72198;SDS011;60103;51.014;16.992;2022-10-30T07:43:16;16.40;;;7.70;;
72198;SDS011;60103;51.014;16.992;2022-10-30T07:46:19;17.20;;;7.80;;
72198;SDS011;60103;51.014;16.992;2022-10-30T07:49:05;16.70;;;8.00;;
72198;SDS011;60103;51.014;16.992;2022-10-30T07:51:42;18.40;;;7.70;;
72198;SDS011;60103;51.014;16.992;2022-10-30T07:54:11;16.50;;;7.60;;
72198;SDS011;60103;51.014;16.992;2022-10-30T07:56:38;17.60;;;8.90;;
72198;SDS011;60103;51.014;16.992;2022-10-30T07:59:24;17.40;;;8.60;;
72198;SDS011;60103;51.014;16.992;2022-10-30T08:02:12;17.40;;;7.70;;
72198;SDS011;60103;51.014;16.992;2022-10-30T08:04:57;18.90;;;8.20;;
72198;SDS011;60103;51.014;16.992;2022-10-30T08:07:54;18.10;;;8.50;;
72198;SDS011;60103;51.014;16.992;2022-10-30T08:10:22;19.10;;;8.50;;
72198;SDS011;60103;51.014;16.992;2022-10-30T08:12:49;17.50;;;8.60;;
72198;SDS011;60103;51.014;16.992;2022-10-30T08:15:17;19.00;;;8.90;;
72198;SDS011;60103;51.014;16.992;2022-10-30T08:17:45;17.60;;;8.70;;
72198;SDS011;60103;51.014;16.992;2022-10-30T08:20:15;21.90;;;9.50;;
72198;SDS011;60103;51.014;16.992;2022-10-30T08:22:51;15.70;;;8.10;;
72198;SDS011;60103;51.014;16.992;2022-10-30T08:25:26;18.40;;;8.20;;
72198;SDS011;60103;51.014;16.992;2022-10-30T08:28:01;18.00;;;8.90;;
72198;SDS011;60103;51.014;16.992;2022-10-30T08:30:36;16.20;;;7.70;;
72198;SDS011;60103;51.014;16.992;2022-10-30T08:33:06;18.30;;;7.90;;
72198;SDS011;60103;51.014;16.992;2022-10-30T08:35:53;16.60;;;8.70;;
72198;SDS011;60103;51.014;16.992;2022-10-30T08:38:24;19.20;;;8.80;;
72198;SDS011;60103;51.014;16.992;2022-10-30T08:41:12;16.30;;;8.20;;
72198;SDS011;60103;51.014;16.992;2022-10-30T08:43:43;19.80;;;8.90;;
72198;SDS011;60103;51.014;16.992;2022-10-30T08:46:10;19.00;;;9.30;;
72198;SDS011;60103;51.014;16.992;2022-10-30T08:48:39;16.30;;;8.30;;
72198;SDS011;60103;51.014;16.992;2022-10-30T08:51:07;16.60;;;7.90;;
72198;SDS011;60103;51.014;16.992;2022-10-30T08:53:40;15.10;;;8.10;;
72198;SDS011;60103;51.014;16.992;2022-10-30T08:56:10;16.90;;;7.40;;
72198;SDS011;60103;51.014;16.992;2022-10-30T08:59:01;19.80;;;8.40;;
72198;SDS011;60103;51.014;16.992;2022-10-30T09:01:28;17.00;;;8.50;;
72198;SDS011;60103;51.014;16.992;2022-10-30T09:04:14;15.90;;;7.60;;
72198;SDS011;60103;51.014;16.992;2022-10-30T09:07:00;16.20;;;7.30;;
72198;SDS011;60103;51.014;16.992;2022-10-30T09:09:57;16.20;;;7.60;;
72198;SDS011;60103;51.014;16.992;2022-10-30T09:12:25;17.70;;;7.80;;
72198;SDS011;60103;51.014;16.992;2022-10-30T09:14:52;14.90;;;7.50;;
72198;SDS011;60103;51.014;16.992;2022-10-30T09:17:20;17.50;;;8.00;;
72198;SDS011;60103;51.014;16.992;2022-10-30T09:19:47;15.20;;;7.10;;
72198;SDS011;60103;51.014;16.992;2022-10-30T09:22:19;18.40;;;7.30;;
72198;SDS011;60103;51.014;16.992;2022-10-30T09:24:47;16.30;;;7.20;;
72198;SDS011;60103;51.014;16.992;2022-10-30T09:27:38;13.70;;;7.20;;
72198;SDS011;60103;51.014;16.992;2022-10-30T09:30:07;18.10;;;7.50;;
72198;SDS011;60103;51.014;16.992;2022-10-30T09:32:40;15.40;;;7.10;;
72198;SDS011;60103;51.014;16.992;2022-10-30T09:35:10;16.70;;;6.60;;
72198;SDS011;60103;51.014;16.992;2022-10-30T09:37:39;15.10;;;6.80;;
72198;SDS011;60103;51.014;16.992;2022-10-30T09:40:16;15.40;;;7.00;;
72198;SDS011;60103;51.014;16.992;2022-10-30T09:42:50;15.20;;;6.30;;
72198;SDS011;60103;51.014;16.992;2022-10-30T09:57:00;12.40;;;5.90;;
72198;SDS011;60103;51.014;16.992;2022-10-30T10:05:44;14.00;;;5.20;;
72198;SDS011;60103;51.014;16.992;2022-10-30T10:08:32;14.20;;;5.20;;
72198;SDS011;60103;51.014;16.992;2022-10-30T10:11:44;12.20;;;5.20;;
72198;SDS011;60103;51.014;16.992;2022-10-30T10:14:16;10.60;;;4.60;;
72198;SDS011;60103;51.014;16.992;2022-10-30T10:16:48;12.80;;;4.90;;
72198;SDS011;60103;51.014;16.992;2022-10-30T10:19:22;14.70;;;5.70;;
72198;SDS011;60103;51.014;16.992;2022-10-30T10:22:17;14.90;;;6.00;;
72198;SDS011;60103;51.014;16.992;2022-10-30T10:24:46;14.00;;;5.50;;
72198;SDS011;60103;51.014;16.992;2022-10-30T10:30:02;13.70;;;5.40;;
72198;SDS011;60103;51.014;16.992;2022-10-30T10:32:42;13.00;;;5.30;;
72198;SDS011;60103;51.014;16.992;2022-10-30T10:47:15;15.30;;;5.10;;
72198;SDS011;60103;51.014;16.992;2022-10-30T10:49:51;11.60;;;4.70;;
72198;SDS011;60103;51.014;16.992;2022-10-30T10:52:35;15.00;;;4.60;;
72198;SDS011;60103;51.014;16.992;2022-10-30T10:55:25;13.90;;;5.60;;
72198;SDS011;60103;51.014;16.992;2022-10-30T10:57:56;11.70;;;4.90;;
72198;SDS011;60103;51.014;16.992;2022-10-30T11:00:25;13.20;;;5.30;;
72198;SDS011;60103;51.014;16.992;2022-10-30T11:02:59;12.30;;;5.60;;
72198;SDS011;60103;51.014;16.992;2022-10-30T11:08:27;14.20;;;5.20;;
72198;SDS011;60103;51.014;16.992;2022-10-30T11:11:03;15.00;;;4.50;;
72198;SDS011;60103;51.014;16.992;2022-10-30T11:13:38;11.70;;;4.60;;
72198;SDS011;60103;51.014;16.992;2022-10-30T11:19:03;12.80;;;5.00;;
72198;SDS011;60103;51.014;16.992;2022-10-30T11:21:37;13.10;;;5.20;;
72198;SDS011;60103;51.014;16.992;2022-10-30T11:24:41;12.10;;;5.50;;
72198;SDS011;60103;51.014;16.992;2022-10-30T11:29:57;14.70;;;4.90;;
72198;SDS011;60103;51.014;16.992;2022-10-30T11:32:27;14.40;;;5.80;;
72198;SDS011;60103;51.014;16.992;2022-10-30T11:37:36;14.20;;;5.40;;
72198;SDS011;60103;51.014;16.992;2022-10-30T11:42:36;13.70;;;5.30;;
72198;SDS011;60103;51.014;16.992;2022-10-30T11:45:07;13.80;;;5.00;;
72198;SDS011;60103;51.014;16.992;2022-10-30T11:47:43;12.50;;;4.40;;
72198;SDS011;60103;51.014;16.992;2022-10-30T11:50:19;14.50;;;4.60;;
72198;SDS011;60103;51.014;16.992;2022-10-30T11:52:49;10.50;;;4.30;;
72198;SDS011;60103;51.014;16.992;2022-10-30T11:55:38;11.60;;;4.80;;
72198;SDS011;60103;51.014;16.992;2022-10-30T11:58:07;16.20;;;4.40;;
72198;SDS011;60103;51.014;16.992;2022-10-30T12:00:36;15.30;;;5.00;;
72198;SDS011;60103;51.014;16.992;2022-10-30T12:03:04;13.10;;;5.30;;
72198;SDS011;60103;51.014;16.992;2022-10-30T12:11:30;11.80;;;5.40;;
72198;SDS011;60103;51.014;16.992;2022-10-30T12:13:58;12.50;;;5.70;;
72198;SDS011;60103;51.014;16.992;2022-10-30T12:16:26;14.70;;;5.70;;
72198;SDS011;60103;51.014;16.992;2022-10-30T12:21:35;12.30;;;5.00;;
72198;SDS011;60103;51.014;16.992;2022-10-30T12:24:04;14.50;;;5.30;;
72198;SDS011;60103;51.014;16.992;2022-10-30T12:26:35;14.80;;;5.10;;
72198;SDS011;60103;51.014;16.992;2022-10-30T12:29:05;12.70;;;5.20;;
72198;SDS011;60103;51.014;16.992;2022-10-30T12:31:40;13.60;;;5.00;;
72198;SDS011;60103;51.014;16.992;2022-10-30T12:37:58;13.70;;;5.10;;
72198;SDS011;60103;51.014;16.992;2022-10-30T12:42:30;11.80;;;4.70;;
72198;SDS011;60103;51.014;16.992;2022-10-30T12:45:10;11.90;;;4.30;;
72198;SDS011;60103;51.014;16.992;2022-10-30T12:50:26;11.20;;;4.00;;
72198;SDS011;60103;51.014;16.992;2022-10-30T12:53:01;11.50;;;4.20;;
72198;SDS011;60103;51.014;16.992;2022-10-30T13:00:59;11.10;;;3.90;;
72198;SDS011;60103;51.014;16.992;2022-10-30T13:03:47;13.00;;;4.20;;
72198;SDS011;60103;51.014;16.992;2022-10-30T13:06:21;11.40;;;3.90;;
72198;SDS011;60103;51.014;16.992;2022-10-30T13:12:02;12.20;;;2.90;;
72198;SDS011;60103;51.014;16.992;2022-10-30T13:14:35;11.10;;;3.70;;
72198;SDS011;60103;51.014;16.992;2022-10-30T13:17:12;11.40;;;3.20;;
72198;SDS011;60103;51.014;16.992;2022-10-30T13:19:41;13.20;;;4.10;;
72198;SDS011;60103;51.014;16.992;2022-10-30T13:30:19;11.40;;;4.30;;
72198;SDS011;60103;51.014;16.992;2022-10-30T13:35:55;10.10;;;3.20;;
72198;SDS011;60103;51.014;16.992;2022-10-30T13:52:27;11.00;;;3.60;;
72198;SDS011;60103;51.014;16.992;2022-10-30T13:55:01;9.40;;;3.20;;
72198;SDS011;60103;51.014;16.992;2022-10-30T13:57:38;11.50;;;3.40;;
72198;SDS011;60103;51.014;16.992;2022-10-30T14:00:29;13.50;;;3.80;;
72198;SDS011;60103;51.014;16.992;2022-10-30T14:15:13;13.60;;;3.70;;
72198;SDS011;60103;51.014;16.992;2022-10-30T14:18:16;13.90;;;3.70;;
72198;SDS011;60103;51.014;16.992;2022-10-30T14:25:39;13.40;;;4.50;;
72198;SDS011;60103;51.014;16.992;2022-10-30T14:28:19;12.40;;;4.20;;
72198;SDS011;60103;51.014;16.992;2022-10-30T14:30:47;14.80;;;4.10;;
72198;SDS011;60103;51.014;16.992;2022-10-30T14:33:32;10.80;;;4.20;;
72198;SDS011;60103;51.014;16.992;2022-10-30T14:36:13;11.10;;;4.50;;
72198;SDS011;60103;51.014;16.992;2022-10-30T14:38:51;11.40;;;4.60;;
72198;SDS011;60103;51.014;16.992;2022-10-30T14:46:58;11.90;;;3.90;;
72198;SDS011;60103;51.014;16.992;2022-10-30T14:49:48;11.40;;;4.20;;
72198;SDS011;60103;51.014;16.992;2022-10-30T14:52:32;13.30;;;4.60;;
72198;SDS011;60103;51.014;16.992;2022-10-30T14:55:14;13.50;;;4.70;;
72198;SDS011;60103;51.014;16.992;2022-10-30T15:05:42;15.70;;;4.70;;
72198;SDS011;60103;51.014;16.992;2022-10-30T15:08:35;13.10;;;5.10;;
72198;SDS011;60103;51.014;16.992;2022-10-30T15:14:31;10.90;;;4.70;;
72198;SDS011;60103;51.014;16.992;2022-10-30T15:17:29;12.90;;;4.70;;
72198;SDS011;60103;51.014;16.992;2022-10-30T15:20:00;15.40;;;5.40;;
72198;SDS011;60103;51.014;16.992;2022-10-30T15:22:30;13.90;;;5.50;;
72198;SDS011;60103;51.014;16.992;2022-10-30T15:24:58;14.30;;;6.10;;
72198;SDS011;60103;51.014;16.992;2022-10-30T15:27:27;12.60;;;5.50;;
72198;SDS011;60103;51.014;16.992;2022-10-30T15:29:57;15.00;;;6.50;;
72198;SDS011;60103;51.014;16.992;2022-10-30T15:32:26;15.20;;;6.90;;
72198;SDS011;60103;51.014;16.992;2022-10-30T15:35:01;14.30;;;5.50;;
72198;SDS011;60103;51.014;16.992;2022-10-30T15:37:30;19.50;;;9.30;;
72198;SDS011;60103;51.014;16.992;2022-10-30T15:40:15;22.20;;;10.90;;
72198;SDS011;60103;51.014;16.992;2022-10-30T15:42:47;18.70;;;8.40;;
72198;SDS011;60103;51.014;16.992;2022-10-30T15:45:16;20.90;;;7.80;;
72198;SDS011;60103;51.014;16.992;2022-10-30T15:47:46;17.90;;;8.80;;
72198;SDS011;60103;51.014;16.992;2022-10-30T15:50:15;14.00;;;7.70;;
72198;SDS011;60103;51.014;16.992;2022-10-30T15:52:43;13.30;;;7.00;;
72198;SDS011;60103;51.014;16.992;2022-10-30T15:55:13;16.40;;;7.90;;
72198;SDS011;60103;51.014;16.992;2022-10-30T15:57:43;16.20;;;5.70;;
72198;SDS011;60103;51.014;16.992;2022-10-30T16:00:34;15.80;;;6.20;;
72198;SDS011;60103;51.014;16.992;2022-10-30T16:03:04;13.20;;;5.50;;
72198;SDS011;60103;51.014;16.992;2022-10-30T16:05:33;17.60;;;5.50;;
72198;SDS011;60103;51.014;16.992;2022-10-30T16:08:01;15.30;;;6.10;;
72198;SDS011;60103;51.014;16.992;2022-10-30T16:10:33;15.10;;;5.80;;
72198;SDS011;60103;51.014;16.992;2022-10-30T16:13:01;15.40;;;5.60;;
72198;SDS011;60103;51.014;16.992;2022-10-30T16:15:30;14.20;;;5.50;;
72198;SDS011;60103;51.014;16.992;2022-10-30T16:18:01;15.20;;;6.00;;
72198;SDS011;60103;51.014;16.992;2022-10-30T16:20:33;13.70;;;6.40;;
72198;SDS011;60103;51.014;16.992;2022-10-30T16:23:02;17.10;;;7.70;;
72198;SDS011;60103;51.014;16.992;2022-10-30T16:25:30;15.70;;;6.00;;
72198;SDS011;60103;51.014;16.992;2022-10-30T16:27:59;17.10;;;8.00;;
72198;SDS011;60103;51.014;16.992;2022-10-30T16:30:28;16.10;;;7.50;;
72198;SDS011;60103;51.014;16.992;2022-10-30T16:32:58;17.40;;;7.70;;
72198;SDS011;60103;51.014;16.992;2022-10-30T16:35:26;21.50;;;8.50;;
72198;SDS011;60103;51.014;16.992;2022-10-30T16:37:54;19.40;;;8.40;;
72198;SDS011;60103;51.014;16.992;2022-10-30T16:40:23;20.70;;;8.50;;
72198;SDS011;60103;51.014;16.992;2022-10-30T16:42:56;18.00;;;7.60;;
72198;SDS011;60103;51.014;16.992;2022-10-30T16:47:59;15.60;;;7.80;;
72198;SDS011;60103;51.014;16.992;2022-10-30T16:50:35;14.50;;;6.90;;
72198;SDS011;60103;51.014;16.992;2022-10-30T16:53:03;14.00;;;7.00;;
72198;SDS011;60103;51.014;16.992;2022-10-30T16:55:50;23.30;;;9.70;;
72198;SDS011;60103;51.014;16.992;2022-10-30T16:58:19;17.90;;;8.30;;
72198;SDS011;60103;51.014;16.992;2022-10-30T17:01:01;20.40;;;8.90;;
72198;SDS011;60103;51.014;16.992;2022-10-30T17:03:32;19.80;;;7.80;;
72198;SDS011;60103;51.014;16.992;2022-10-30T17:06:04;23.90;;;9.90;;
72198;SDS011;60103;51.014;16.992;2022-10-30T17:08:41;26.00;;;10.80;;
72198;SDS011;60103;51.014;16.992;2022-10-30T17:11:17;21.10;;;10.20;;
72198;SDS011;60103;51.014;16.992;2022-10-30T17:18:57;39.30;;;19.90;;
72198;SDS011;60103;51.014;16.992;2022-10-30T17:21:29;43.40;;;22.40;;
72198;SDS011;60103;51.014;16.992;2022-10-30T17:24:03;27.00;;;14.40;;
72198;SDS011;60103;51.014;16.992;2022-10-30T17:26:34;27.30;;;14.40;;
72198;SDS011;60103;51.014;16.992;2022-10-30T17:29:05;31.90;;;15.10;;
72198;SDS011;60103;51.014;16.992;2022-10-30T17:34:10;33.50;;;17.20;;